LGZA

Dionysios Solomos Airport

Zakynthos Island, Greece
TAF LGZA 201400Z 2015/2024 28012KT 9999 FEW030
Issued Valid From Valid To
Jul-20 @ 14:00 UTC
(49 minutes ago)
Jul-20 @ 15:00 UTC
(in 11 minutes)
Jul-21 @ 00:00 UTC
(in 9 hours)
Jul-20 @ 15:00 to Jul-21 @ 00:00
TAF LGZA 201400Z 2015/2024 28012KT 9999 FEW030
Wind Visibility Clouds
280° at 12 knots 10,000+ meters
  • Few at 3,000' AGL
TAF LGZA 201400Z 2015/2024 28012KT 9999 FEW030
Issued Jul-20 @ 14:00 UTC
(49 minutes ago)
Valid From Jul-20 @ 15:00 UTC
(in 11 minutes)
Valid To Jul-21 @ 00:00 UTC
(in 9 hours)
Jul-20 @ 15:00 - Jul-21 @ 00:00
Wind Visibility
280° at 12 knots 10,000+ meters
Clouds
  • Few at 3,000' AGL